createdAt,value
2018-07-27T00:02:15.309Z,20.77
2018-07-27T00:04:46.298Z,19.77
2018-07-27T00:07:17.433Z,19.70
2018-07-27T00:09:48.386Z,20.03
2018-07-27T00:12:19.623Z,19.60
2018-07-27T00:14:50.753Z,20.00
2018-07-27T00:17:21.934Z,20.73
2018-07-27T00:19:52.956Z,21.17
2018-07-27T00:22:23.976Z,19.07
2018-07-27T00:24:55.252Z,19.97
2018-07-27T00:27:26.493Z,20.77
2018-07-27T00:29:58.105Z,20.40
2018-07-27T00:32:30.133Z,19.90
2018-07-27T00:35:01.173Z,20.57
2018-07-27T00:37:32.177Z,21.10
2018-07-27T00:40:03.550Z,20.23
2018-07-27T00:42:34.685Z,19.40
2018-07-27T00:45:06.576Z,19.47
2018-07-27T00:47:37.754Z,19.63
2018-07-27T00:50:09.112Z,19.73
2018-07-27T00:52:40.717Z,20.50
2018-07-27T00:55:12.031Z,20.97
2018-07-27T00:57:45.236Z,19.47
2018-07-27T01:00:18.141Z,18.83
2018-07-27T01:02:50.010Z,19.47
2018-07-27T01:05:21.239Z,19.33
2018-07-27T01:07:52.450Z,20.77
2018-07-27T01:10:23.668Z,19.83
2018-07-27T01:12:54.717Z,18.83
2018-07-27T01:15:25.719Z,19.10
2018-07-27T01:17:57.893Z,19.90
2018-07-27T01:20:29.658Z,20.90
2018-07-27T01:23:01.726Z,20.37
2018-07-27T01:25:32.689Z,19.53
2018-07-27T01:28:03.537Z,20.00
2018-07-27T01:30:34.640Z,19.97
2018-07-27T01:33:05.709Z,20.53
2018-07-27T01:35:37.669Z,19.50
2018-07-27T01:38:08.611Z,19.57
2018-07-27T01:40:39.443Z,19.40
2018-07-27T01:43:10.568Z,19.40
2018-07-27T01:45:42.323Z,19.47
2018-07-27T01:48:14.892Z,18.80
2018-07-27T01:50:48.020Z,20.37
2018-07-27T01:53:20.550Z,19.60
2018-07-27T01:55:52.337Z,21.67
2018-07-27T01:58:23.638Z,21.03
2018-07-27T02:00:55.292Z,20.20
2018-07-27T02:03:26.338Z,20.80
2018-07-27T02:05:57.546Z,19.90
2018-07-27T02:08:28.661Z,21.00
2018-07-27T02:11:00.102Z,20.70
2018-07-27T02:13:31.112Z,20.50
2018-07-27T02:16:03.188Z,21.93
2018-07-27T02:18:34.588Z,20.60
2018-07-27T02:21:05.722Z,21.43
2018-07-27T02:23:36.782Z,20.43
2018-07-27T02:26:07.858Z,21.03
2018-07-27T02:28:39.267Z,20.70
2018-07-27T02:31:10.711Z,20.53
2018-07-27T02:33:41.980Z,19.77
2018-07-27T02:36:14.403Z,20.10
2018-07-27T02:38:46.920Z,18.73
2018-07-27T02:41:17.761Z,19.30
2018-07-27T02:43:48.756Z,18.53
2018-07-27T02:46:20.636Z,19.10
2018-07-27T02:48:52.031Z,18.10
2018-07-27T02:51:23.140Z,20.73
2018-07-27T02:53:54.611Z,20.10
2018-07-27T02:56:27.221Z,17.73
2018-07-27T02:58:59.084Z,18.87
2018-07-27T03:01:34.320Z,18.20
2018-07-27T03:04:06.869Z,18.37
2018-07-27T03:06:38.306Z,19.23
2018-07-27T03:09:15.059Z,19.50
2018-07-27T03:11:46.173Z,19.87
2018-07-27T03:14:18.367Z,20.40
2018-07-27T03:16:50.388Z,22.80
2018-07-27T03:19:22.396Z,20.50
2018-07-27T03:21:54.291Z,21.30
2018-07-27T03:24:25.333Z,20.23
2018-07-27T03:26:56.388Z,19.43
2018-07-27T03:29:33.043Z,19.90
2018-07-27T03:32:04.069Z,17.50
2018-07-27T03:34:35.232Z,18.83
2018-07-27T03:37:07.383Z,16.20
2018-07-27T03:39:40.313Z,16.50
2018-07-27T03:42:11.415Z,15.73
2018-07-27T03:44:43.295Z,17.23
2018-07-27T03:47:15.809Z,16.87
2018-07-27T03:49:47.028Z,16.97
2018-07-27T03:52:17.998Z,18.73
2018-07-27T03:54:49.123Z,18.13
2018-07-27T03:57:20.938Z,15.47
2018-07-27T03:59:53.253Z,18.80
2018-07-27T04:02:24.836Z,19.63
2018-07-27T04:04:57.006Z,19.70
2018-07-27T04:07:28.195Z,18.43
2018-07-27T04:09:59.256Z,15.70
2018-07-27T04:12:30.569Z,13.57
2018-07-27T04:15:01.855Z,14.57
2018-07-27T04:17:32.838Z,15.20
2018-07-27T04:20:04.398Z,17.67
2018-07-27T04:22:35.757Z,18.10
2018-07-27T04:25:06.961Z,18.20
2018-07-27T04:27:38.069Z,18.97
2018-07-27T04:30:09.269Z,20.43
2018-07-27T04:32:41.424Z,20.30
2018-07-27T04:35:12.488Z,19.17
2018-07-27T04:37:43.610Z,14.33
2018-07-27T04:40:18.392Z,16.40
2018-07-27T04:42:53.751Z,13.67
2018-07-27T04:45:26.786Z,15.20
2018-07-27T04:47:58.265Z,13.60
2018-07-27T04:50:30.207Z,14.77
2018-07-27T04:53:02.860Z,13.73
2018-07-27T04:55:35.520Z,14.10
2018-07-27T04:58:07.299Z,13.40
2018-07-27T05:00:38.781Z,14.27
2018-07-27T05:03:11.349Z,14.53
2018-07-27T05:05:44.293Z,14.07
2018-07-27T05:08:16.118Z,15.73
2018-07-27T05:10:48.000Z,14.10
2018-07-27T05:13:20.231Z,15.90
2018-07-27T05:15:51.294Z,15.03
2018-07-27T05:18:23.438Z,15.70
2018-07-27T05:20:54.590Z,14.50
2018-07-27T05:23:26.708Z,14.63
2018-07-27T05:25:58.112Z,14.60
2018-07-27T05:28:29.634Z,13.60
2018-07-27T05:31:00.421Z,14.33
2018-07-27T05:33:31.142Z,13.10
2018-07-27T05:36:01.928Z,13.37
2018-07-27T05:38:32.821Z,12.80
2018-07-27T05:41:03.567Z,13.00
2018-07-27T05:43:35.813Z,11.77
2018-07-27T05:46:06.867Z,11.10
2018-07-27T05:48:37.725Z,12.10
2018-07-27T05:51:08.517Z,12.87
2018-07-27T05:53:39.260Z,12.70
2018-07-27T05:56:09.892Z,13.00
2018-07-27T05:58:41.231Z,11.97
2018-07-27T06:01:12.624Z,11.07
2018-07-27T06:03:44.135Z,11.40
2018-07-27T06:06:15.506Z,11.50
2018-07-27T06:08:46.609Z,11.87
2018-07-27T06:11:17.963Z,10.83
2018-07-27T06:13:49.153Z,12.53
2018-07-27T06:16:20.142Z,10.70
2018-07-27T06:18:51.410Z,10.90
2018-07-27T06:21:23.619Z,12.27
2018-07-27T06:23:54.738Z,10.70
2018-07-27T06:26:26.473Z,12.03
2018-07-27T06:28:57.640Z,10.10
2018-07-27T06:31:28.938Z,11.03
2018-07-27T06:34:01.049Z,10.90
2018-07-27T06:36:33.173Z,9.93
2018-07-27T06:39:05.233Z,10.35
2018-07-27T06:41:36.226Z,9.70
2018-07-27T06:44:07.494Z,9.95
2018-07-27T06:46:39.941Z,8.90
2018-07-27T06:49:11.816Z,14.50
2018-07-27T06:51:46.268Z,15.38
2018-07-27T06:54:17.591Z,18.32
2018-07-27T06:56:49.125Z,17.27
2018-07-27T06:59:21.022Z,16.42
2018-07-27T07:01:52.290Z,15.32
2018-07-27T07:04:23.991Z,15.45
2018-07-27T07:06:55.144Z,11.83
2018-07-27T07:09:26.451Z,11.07
2018-07-27T07:11:57.366Z,11.50
2018-07-27T07:14:29.159Z,12.80
2018-07-27T07:17:01.832Z,13.13
2018-07-27T07:19:32.924Z,12.07
2018-07-27T07:22:04.406Z,12.57
2018-07-27T07:24:35.923Z,12.87
2018-07-27T07:27:07.287Z,14.10
2018-07-27T07:29:40.724Z,12.93
2018-07-27T07:32:11.924Z,13.00
2018-07-27T07:34:43.010Z,12.00
2018-07-27T07:37:14.538Z,13.30
2018-07-27T07:39:47.577Z,13.30
2018-07-27T07:42:18.844Z,11.97
2018-07-27T07:44:50.431Z,13.53
2018-07-27T07:47:22.748Z,13.83
2018-07-27T07:49:54.023Z,13.97
2018-07-27T07:52:25.251Z,13.77
2018-07-27T07:54:57.453Z,13.10
2018-07-27T07:57:29.378Z,13.90
2018-07-27T08:00:00.621Z,13.70
2018-07-27T08:02:31.454Z,13.37
2018-07-27T08:05:02.798Z,15.33
2018-07-27T08:07:37.883Z,15.87
2018-07-27T08:10:10.206Z,14.73
2018-07-27T08:12:41.356Z,14.10
2018-07-27T08:15:12.632Z,14.80
2018-07-27T08:17:43.641Z,15.57
2018-07-27T08:20:14.908Z,15.37
2018-07-27T08:22:50.066Z,14.60
2018-07-27T08:25:21.057Z,14.60
2018-07-27T08:29:00.434Z,14.20
2018-07-27T08:31:32.890Z,14.20
2018-07-27T08:34:04.171Z,15.27
2018-07-27T08:36:35.620Z,15.20
2018-07-27T08:39:09.656Z,15.20
2018-07-27T08:41:41.116Z,14.33
2018-07-27T08:44:16.656Z,15.70
2018-07-27T08:46:48.063Z,14.37
2018-07-27T08:49:20.432Z,13.93
2018-07-27T08:51:51.565Z,14.80
2018-07-27T08:54:22.549Z,15.40
2018-07-27T08:56:53.722Z,15.40
2018-07-27T08:59:24.924Z,14.10
2018-07-27T09:01:56.066Z,14.53
2018-07-27T09:04:27.054Z,13.80
2018-07-27T09:06:58.496Z,14.30
2018-07-27T09:09:29.737Z,12.33
2018-07-27T09:12:00.942Z,13.97
2018-07-27T09:14:31.824Z,15.47
2018-07-27T09:17:02.600Z,17.33
2018-07-27T09:19:34.672Z,17.50
2018-07-27T09:22:06.271Z,18.10
2018-07-27T09:24:38.473Z,17.47
2018-07-27T09:27:09.961Z,17.70
2018-07-27T09:29:41.222Z,18.60
2018-07-27T09:32:13.817Z,18.40
2018-07-27T09:34:46.802Z,18.20
2018-07-27T09:37:17.779Z,17.77
2018-07-27T09:39:48.722Z,20.13
2018-07-27T09:42:19.944Z,18.80
2018-07-27T09:44:52.255Z,19.33
2018-07-27T09:47:23.684Z,19.70
2018-07-27T09:49:54.839Z,19.43
2018-07-27T09:52:25.943Z,19.00
2018-07-27T09:54:57.062Z,19.77
2018-07-27T09:57:28.262Z,18.73
2018-07-27T09:59:59.074Z,20.37
2018-07-27T10:02:30.528Z,20.60
2018-07-27T10:05:01.700Z,20.50
2018-07-27T10:07:32.775Z,20.83
2018-07-27T10:10:06.042Z,21.60
2018-07-27T10:12:37.407Z,20.53
2018-07-27T10:15:08.779Z,20.53
2018-07-27T10:17:39.943Z,19.80
2018-07-27T10:20:11.566Z,22.47
2018-07-27T10:22:43.409Z,20.03
2018-07-27T10:25:14.485Z,22.23
2018-07-27T10:27:45.660Z,22.97
2018-07-27T10:30:16.671Z,24.73
2018-07-27T10:32:47.971Z,20.97
2018-07-27T10:35:18.996Z,22.60
2018-07-27T10:37:50.153Z,21.63
2018-07-27T10:40:21.795Z,20.90
2018-07-27T10:42:52.793Z,20.47
2018-07-27T10:45:23.933Z,19.07
2018-07-27T10:47:56.414Z,20.20
2018-07-27T10:50:28.042Z,20.80
2018-07-27T10:53:01.652Z,20.50
2018-07-27T10:55:33.864Z,19.83
2018-07-27T10:58:05.283Z,20.00
2018-07-27T11:00:37.094Z,21.10
2018-07-27T11:03:22.365Z,20.73
2018-07-27T11:05:53.693Z,20.83
2018-07-27T11:08:28.064Z,20.03
2018-07-27T11:10:59.279Z,20.10
2018-07-27T11:13:30.142Z,19.90
2018-07-27T11:16:01.175Z,19.57
2018-07-27T11:18:32.244Z,19.73
2018-07-27T11:21:03.417Z,19.00
2018-07-27T11:23:34.845Z,18.30
2018-07-27T11:26:07.255Z,17.20
2018-07-27T11:28:38.966Z,20.10
2018-07-27T11:31:11.048Z,18.60
2018-07-27T11:33:42.293Z,18.10
2018-07-27T11:36:15.055Z,16.00
2018-07-27T11:38:46.568Z,19.00
2018-07-27T11:41:19.339Z,16.57
2018-07-27T11:43:50.376Z,17.53
2018-07-27T11:46:22.143Z,17.97
2018-07-27T11:48:53.847Z,16.43
2018-07-27T11:51:25.253Z,15.90
2018-07-27T11:53:56.395Z,16.50
2018-07-27T11:56:40.019Z,14.93
2018-07-27T11:59:11.008Z,15.67
2018-07-27T12:01:42.318Z,14.70
2018-07-27T12:04:15.326Z,15.23
2018-07-27T12:06:46.455Z,16.60
2018-07-27T12:09:18.823Z,13.77
2018-07-27T12:11:49.974Z,15.30
2018-07-27T12:14:21.170Z,14.70
2018-07-27T12:16:52.364Z,14.23
2018-07-27T12:19:23.533Z,16.33
2018-07-27T12:21:54.604Z,13.93
2018-07-27T12:24:25.722Z,15.90
2018-07-27T12:26:56.505Z,15.90
2018-07-27T12:29:28.285Z,17.97
2018-07-27T12:31:59.308Z,16.87
2018-07-27T12:34:32.074Z,17.93
2018-07-27T12:37:03.060Z,16.27
2018-07-27T12:39:34.464Z,17.80
2018-07-27T12:42:06.376Z,17.83
2018-07-27T12:44:37.395Z,17.13
2018-07-27T12:47:08.864Z,18.80
2018-07-27T12:49:39.962Z,17.10
2018-07-27T12:52:11.154Z,17.60
2018-07-27T12:54:42.131Z,17.00
2018-07-27T12:57:13.503Z,17.23
2018-07-27T12:59:44.612Z,18.10
2018-07-27T13:02:15.812Z,17.07
2018-07-27T13:04:48.596Z,17.27
2018-07-27T13:07:19.842Z,16.53
2018-07-27T13:09:55.343Z,17.20
2018-07-27T13:12:26.887Z,16.90
2018-07-27T13:14:57.808Z,16.37
2018-07-27T13:17:28.801Z,15.57
2018-07-27T13:20:01.248Z,16.80
2018-07-27T13:22:32.689Z,17.43
2018-07-27T13:25:05.868Z,14.60
2018-07-27T13:27:37.763Z,16.27
2018-07-27T13:30:10.663Z,16.90
2018-07-27T13:32:42.867Z,15.00
2018-07-27T13:37:47.163Z,15.77
2018-07-27T13:40:18.061Z,16.30
2018-07-27T13:42:49.106Z,16.90
2018-07-27T13:45:21.044Z,16.27
2018-07-27T13:47:52.153Z,14.90
2018-07-27T13:53:02.722Z,14.37
2018-07-27T13:55:33.932Z,14.83
2018-07-27T13:58:05.175Z,13.60
2018-07-27T14:00:37.334Z,14.40
2018-07-27T14:03:08.577Z,12.97
2018-07-27T14:05:39.537Z,13.70
2018-07-27T14:08:16.417Z,12.80
2018-07-27T14:10:47.211Z,13.07
2018-07-27T14:13:18.338Z,11.10
2018-07-27T14:15:50.561Z,12.37
2018-07-27T14:18:21.640Z,12.20
2018-07-27T14:20:53.158Z,11.63
2018-07-27T14:23:25.268Z,11.10
2018-07-27T14:25:56.295Z,11.83
2018-07-27T14:28:27.265Z,9.77
2018-07-27T14:30:59.018Z,9.37
2018-07-27T14:33:35.881Z,9.00
2018-07-27T14:36:06.988Z,9.50
2018-07-27T14:38:38.484Z,9.57
2018-07-27T14:41:09.488Z,8.97
2018-07-27T14:43:41.388Z,9.17
2018-07-27T14:46:12.609Z,9.00
2018-07-27T14:48:44.273Z,7.80
2018-07-27T14:51:19.014Z,8.30
2018-07-27T14:53:50.839Z,8.20
2018-07-27T14:56:22.357Z,8.60
2018-07-27T14:58:54.681Z,9.20
2018-07-27T15:01:25.771Z,9.20
2018-07-27T15:03:56.752Z,8.77
2018-07-27T15:06:27.911Z,9.20
2018-07-27T15:08:59.999Z,9.07
2018-07-27T15:11:31.793Z,9.73
2018-07-27T15:14:05.956Z,9.27
2018-07-27T15:16:37.323Z,11.13
2018-07-27T15:19:09.376Z,8.47
2018-07-27T15:21:41.792Z,9.60
2018-07-27T15:24:12.833Z,9.17
2018-07-27T15:26:43.828Z,9.20
2018-07-27T15:29:15.002Z,10.87
2018-07-27T15:31:46.249Z,9.90
2018-07-27T15:34:17.898Z,10.10
2018-07-27T15:36:49.447Z,10.10
2018-07-27T15:39:20.676Z,11.20
2018-07-27T15:41:51.720Z,10.60
2018-07-27T15:44:23.251Z,11.87
2018-07-27T15:46:54.231Z,12.23
2018-07-27T15:49:25.366Z,11.70
2018-07-27T15:51:56.516Z,10.40
2018-07-27T15:54:27.642Z,10.57
2018-07-27T15:56:58.969Z,10.50
2018-07-27T15:59:30.818Z,10.10
2018-07-27T16:02:03.207Z,9.90
2018-07-27T16:04:34.419Z,9.60
2018-07-27T16:07:05.501Z,11.67
2018-07-27T16:09:39.479Z,10.37
2018-07-27T16:12:10.475Z,10.77
2018-07-27T16:14:41.669Z,8.63
2018-07-27T16:17:12.600Z,9.30
2018-07-27T16:19:43.514Z,9.97
2018-07-27T16:22:15.178Z,10.50
2018-07-27T16:24:46.376Z,11.50
2018-07-27T16:27:19.446Z,10.00
2018-07-27T16:29:50.534Z,8.80
2018-07-27T16:32:21.636Z,8.00
2018-07-27T16:34:52.870Z,7.90
2018-07-27T16:37:24.089Z,9.10
2018-07-27T16:39:55.625Z,9.60
2018-07-27T16:42:26.876Z,8.77
2018-07-27T16:44:58.212Z,9.07
2018-07-27T16:47:29.434Z,8.40
2018-07-27T16:50:00.990Z,8.87
2018-07-27T16:52:32.160Z,8.20
2018-07-27T16:55:03.667Z,9.67
2018-07-27T16:57:36.193Z,8.47
2018-07-27T17:00:07.328Z,9.80
2018-07-27T17:02:38.582Z,8.67
2018-07-27T17:05:09.771Z,9.43
2018-07-27T17:07:40.942Z,8.70
2018-07-27T17:10:12.081Z,9.03
2018-07-27T17:12:43.267Z,8.30
2018-07-27T17:15:16.167Z,9.10
2018-07-27T17:17:48.254Z,9.93
2018-07-27T17:20:20.213Z,8.53
2018-07-27T17:22:51.517Z,8.00
2018-07-27T17:25:22.566Z,7.90
2018-07-27T17:28:02.252Z,8.70
2018-07-27T17:30:33.762Z,8.13
2018-07-27T17:33:04.885Z,7.87
2018-07-27T17:35:38.423Z,8.57
2018-07-27T17:38:12.741Z,7.50
2018-07-27T17:40:44.258Z,8.60
2018-07-27T17:43:15.615Z,8.80
2018-07-27T17:45:46.620Z,9.00
2018-07-27T17:48:23.166Z,9.47
2018-07-27T17:50:54.178Z,8.80
2018-07-27T17:53:26.155Z,8.90
2018-07-27T17:55:57.016Z,8.10
2018-07-27T17:58:27.958Z,8.90
2018-07-27T18:00:59.118Z,8.10
2018-07-27T18:03:30.706Z,8.50
2018-07-27T18:06:02.355Z,8.63
2018-07-27T18:08:35.123Z,8.63
2018-07-27T18:11:10.735Z,8.60
2018-07-27T18:13:42.181Z,8.63
2018-07-27T18:16:13.307Z,9.43
2018-07-27T18:18:44.384Z,8.57
2018-07-27T18:21:15.373Z,8.93
2018-07-27T18:23:46.923Z,8.67
2018-07-27T18:26:18.001Z,8.50
2018-07-27T18:28:48.888Z,7.40
2018-07-27T18:31:20.045Z,7.27
2018-07-27T18:33:51.241Z,7.33
2018-07-27T18:36:23.657Z,6.90
2018-07-27T18:38:54.758Z,7.60
2018-07-27T18:41:29.234Z,6.27
2018-07-27T18:44:06.795Z,6.70
2018-07-27T18:46:38.714Z,6.67
2018-07-27T18:49:10.404Z,7.60
2018-07-27T18:51:41.474Z,6.83
2018-07-27T18:54:13.089Z,7.47
2018-07-27T18:56:44.167Z,7.40
2018-07-27T18:59:15.991Z,7.20
2018-07-27T19:01:47.217Z,7.00
2018-07-27T19:04:18.229Z,7.37
2018-07-27T19:06:49.295Z,7.23
2018-07-27T19:09:20.422Z,7.70
2018-07-27T19:11:51.589Z,7.20
2018-07-27T19:14:22.807Z,8.17
2018-07-27T19:16:54.033Z,7.83
2018-07-27T19:19:25.425Z,8.17
2018-07-27T19:21:56.656Z,8.00
2018-07-27T19:24:28.054Z,7.70
2018-07-27T19:27:02.110Z,8.67
2018-07-27T19:29:34.805Z,8.30
2018-07-27T19:32:06.217Z,8.50
2018-07-27T19:34:37.793Z,8.40
2018-07-27T19:37:09.441Z,9.47
2018-07-27T19:39:40.881Z,9.00
2018-07-27T19:42:13.107Z,8.70
2018-07-27T19:44:45.022Z,9.47
2018-07-27T19:47:16.131Z,11.27
2018-07-27T19:49:47.234Z,10.07
2018-07-27T19:52:18.540Z,11.70
2018-07-27T19:54:51.116Z,8.90
2018-07-27T19:57:26.383Z,10.20
2018-07-27T19:59:58.573Z,9.70
2018-07-27T20:02:32.797Z,9.97
2018-07-27T20:05:03.896Z,10.60
2018-07-27T20:07:35.032Z,9.90
2018-07-27T20:10:07.143Z,10.60
2018-07-27T20:15:15.179Z,10.10
2018-07-27T20:17:47.566Z,10.00
2018-07-27T20:20:22.908Z,8.93
2018-07-27T20:22:54.939Z,9.27
2018-07-27T20:25:26.277Z,9.27
2018-07-27T20:27:58.331Z,8.80
2018-07-27T20:30:30.129Z,10.50
2018-07-27T20:33:02.074Z,9.20
2018-07-27T20:35:33.746Z,9.40
2018-07-27T20:38:05.770Z,9.30
2018-07-27T20:40:37.079Z,9.97
2018-07-27T20:43:08.258Z,10.57
2018-07-27T20:45:39.454Z,10.30
2018-07-27T20:48:11.385Z,10.03
2018-07-27T20:50:42.508Z,9.90
2018-07-27T20:53:14.191Z,8.57
2018-07-27T20:55:46.194Z,8.90
2018-07-27T20:58:18.251Z,8.97
2018-07-27T21:00:49.390Z,8.87
2018-07-27T21:03:20.448Z,10.50
2018-07-27T21:05:51.472Z,9.60
2018-07-27T21:08:22.602Z,9.17
2018-07-27T21:10:53.830Z,9.27
2018-07-27T21:13:25.470Z,9.47
2018-07-27T21:15:57.393Z,10.37
2018-07-27T21:18:29.194Z,9.30
2018-07-27T21:21:00.435Z,9.47
2018-07-27T21:23:32.157Z,9.60
2018-07-27T21:26:03.171Z,9.37
2018-07-27T21:28:34.324Z,9.30
2018-07-27T21:31:06.279Z,9.90
2018-07-27T21:33:37.315Z,9.70
2018-07-27T21:36:08.239Z,9.13
2018-07-27T21:38:39.687Z,10.50
2018-07-27T21:41:11.871Z,9.03
2018-07-27T21:43:43.367Z,9.57
2018-07-27T21:46:15.881Z,10.27
2018-07-27T21:48:47.662Z,10.07
2018-07-27T21:51:18.404Z,9.17
2018-07-27T21:53:49.109Z,9.50
2018-07-27T21:56:20.279Z,9.57
2018-07-27T21:58:51.044Z,8.90
2018-07-27T22:01:23.159Z,9.20
2018-07-27T22:03:53.916Z,9.80
2018-07-27T22:06:24.709Z,11.57
2018-07-27T22:08:55.488Z,11.23
2018-07-27T22:11:28.116Z,9.73
2018-07-27T22:13:59.737Z,10.50
2018-07-27T22:16:31.512Z,10.33
2018-07-27T22:19:03.322Z,9.43
2018-07-27T22:21:34.674Z,9.30
2018-07-27T22:24:06.591Z,9.77
2018-07-27T22:26:38.617Z,9.87
2018-07-27T22:29:10.344Z,9.40
2018-07-27T22:31:41.106Z,9.00
2018-07-27T22:34:14.235Z,10.53
2018-07-27T22:36:45.783Z,9.43
2018-07-27T22:39:17.486Z,9.93
2018-07-27T22:41:48.595Z,10.57
2018-07-27T22:44:19.755Z,10.67
2018-07-27T22:46:51.879Z,9.70
2018-07-27T22:49:22.856Z,10.30
2018-07-27T22:51:54.055Z,9.40
2018-07-27T22:54:25.255Z,9.80
2018-07-27T22:56:56.386Z,10.50
2018-07-27T22:59:27.500Z,10.07
2018-07-27T23:01:58.490Z,10.53
2018-07-27T23:04:29.837Z,9.90
2018-07-27T23:07:00.634Z,10.37
2018-07-27T23:09:32.474Z,10.30
2018-07-27T23:12:04.174Z,11.60
2018-07-27T23:14:35.285Z,10.90
2018-07-27T23:17:07.634Z,11.43
2018-07-27T23:19:39.462Z,10.57
2018-07-27T23:22:10.873Z,11.20
2018-07-27T23:24:41.953Z,11.27
2018-07-27T23:27:13.205Z,10.97
2018-07-27T23:29:44.638Z,11.00
2018-07-27T23:32:16.621Z,10.03
2018-07-27T23:34:47.762Z,10.53
2018-07-27T23:37:19.351Z,10.73
2018-07-27T23:39:50.024Z,10.90
2018-07-27T23:42:21.884Z,11.27
2018-07-27T23:44:56.361Z,11.47
2018-07-27T23:47:27.048Z,10.70
2018-07-27T23:49:57.737Z,12.07
2018-07-27T23:52:29.020Z,10.40
2018-07-27T23:55:00.730Z,10.80
2018-07-27T23:57:31.487Z,10.17
